sensor_id;sensor_type;location;lat;lon;timestamp;P1;durP1;ratioP1;P2;durP2;ratioP2
14768;SDS011;7476;49.404;11.152;2023-02-28T00:00:09;5.23;;;3.70;;
14768;SDS011;7476;49.404;11.152;2023-02-28T00:02:37;5.03;;;3.63;;
14768;SDS011;7476;49.404;11.152;2023-02-28T00:05:06;4.90;;;3.87;;
14768;SDS011;7476;49.404;11.152;2023-02-28T00:07:34;5.23;;;3.90;;
14768;SDS011;7476;49.404;11.152;2023-02-28T00:10:02;5.77;;;4.00;;
14768;SDS011;7476;49.404;11.152;2023-02-28T00:12:32;4.20;;;3.63;;
14768;SDS011;7476;49.404;11.152;2023-02-28T00:14:59;6.37;;;3.93;;
14768;SDS011;7476;49.404;11.152;2023-02-28T00:17:26;5.67;;;3.90;;
14768;SDS011;7476;49.404;11.152;2023-02-28T00:19:52;5.57;;;4.10;;
14768;SDS011;7476;49.404;11.152;2023-02-28T00:22:20;6.57;;;4.13;;
14768;SDS011;7476;49.404;11.152;2023-02-28T00:24:48;5.47;;;3.87;;
14768;SDS011;7476;49.404;11.152;2023-02-28T00:27:14;5.40;;;4.17;;
14768;SDS011;7476;49.404;11.152;2023-02-28T00:29:42;6.53;;;3.93;;
14768;SDS011;7476;49.404;11.152;2023-02-28T00:32:09;5.77;;;3.87;;
14768;SDS011;7476;49.404;11.152;2023-02-28T00:34:36;5.63;;;4.03;;
14768;SDS011;7476;49.404;11.152;2023-02-28T00:37:03;5.07;;;4.07;;
14768;SDS011;7476;49.404;11.152;2023-02-28T00:39:31;7.10;;;4.40;;
14768;SDS011;7476;49.404;11.152;2023-02-28T00:41:59;6.37;;;4.17;;
14768;SDS011;7476;49.404;11.152;2023-02-28T00:44:25;7.07;;;4.30;;
14768;SDS011;7476;49.404;11.152;2023-02-28T00:46:53;5.70;;;4.00;;
14768;SDS011;7476;49.404;11.152;2023-02-28T00:49:21;6.47;;;4.73;;
14768;SDS011;7476;49.404;11.152;2023-02-28T00:51:48;8.70;;;5.03;;
14768;SDS011;7476;49.404;11.152;2023-02-28T00:54:15;9.30;;;4.50;;
14768;SDS011;7476;49.404;11.152;2023-02-28T00:56:42;7.27;;;4.50;;
14768;SDS011;7476;49.404;11.152;2023-02-28T00:59:10;5.97;;;4.20;;
14768;SDS011;7476;49.404;11.152;2023-02-28T01:01:37;6.23;;;4.40;;
14768;SDS011;7476;49.404;11.152;2023-02-28T01:04:06;5.50;;;4.50;;
14768;SDS011;7476;49.404;11.152;2023-02-28T01:06:32;6.57;;;3.77;;
14768;SDS011;7476;49.404;11.152;2023-02-28T01:08:59;7.20;;;4.20;;
14768;SDS011;7476;49.404;11.152;2023-02-28T01:11:26;8.07;;;5.10;;
14768;SDS011;7476;49.404;11.152;2023-02-28T01:13:53;6.63;;;4.33;;
14768;SDS011;7476;49.404;11.152;2023-02-28T01:16:19;7.53;;;4.20;;
14768;SDS011;7476;49.404;11.152;2023-02-28T01:18:46;6.97;;;4.70;;
14768;SDS011;7476;49.404;11.152;2023-02-28T01:21:15;7.03;;;4.47;;
14768;SDS011;7476;49.404;11.152;2023-02-28T01:23:44;6.13;;;4.23;;
14768;SDS011;7476;49.404;11.152;2023-02-28T01:26:12;7.43;;;4.40;;
14768;SDS011;7476;49.404;11.152;2023-02-28T01:28:40;5.80;;;4.07;;
14768;SDS011;7476;49.404;11.152;2023-02-28T01:31:07;6.53;;;4.17;;
14768;SDS011;7476;49.404;11.152;2023-02-28T01:33:34;7.43;;;4.23;;
14768;SDS011;7476;49.404;11.152;2023-02-28T01:36:03;5.67;;;4.27;;
14768;SDS011;7476;49.404;11.152;2023-02-28T01:38:33;5.97;;;3.90;;
14768;SDS011;7476;49.404;11.152;2023-02-28T01:40:59;6.70;;;3.80;;
14768;SDS011;7476;49.404;11.152;2023-02-28T01:43:27;4.50;;;3.83;;
14768;SDS011;7476;49.404;11.152;2023-02-28T01:45:55;5.30;;;3.77;;
14768;SDS011;7476;49.404;11.152;2023-02-28T01:48:24;6.80;;;4.30;;
14768;SDS011;7476;49.404;11.152;2023-02-28T01:50:53;5.50;;;4.10;;
14768;SDS011;7476;49.404;11.152;2023-02-28T01:53:24;7.37;;;4.57;;
14768;SDS011;7476;49.404;11.152;2023-02-28T01:55:58;6.87;;;4.00;;
14768;SDS011;7476;49.404;11.152;2023-02-28T01:58:24;7.30;;;4.20;;
14768;SDS011;7476;49.404;11.152;2023-02-28T02:00:51;5.03;;;3.90;;
14768;SDS011;7476;49.404;11.152;2023-02-28T02:03:18;7.33;;;3.97;;
14768;SDS011;7476;49.404;11.152;2023-02-28T02:05:46;9.67;;;4.40;;
14768;SDS011;7476;49.404;11.152;2023-02-28T02:08:15;5.37;;;3.83;;
14768;SDS011;7476;49.404;11.152;2023-02-28T02:10:44;5.47;;;3.80;;
14768;SDS011;7476;49.404;11.152;2023-02-28T02:13:19;6.73;;;4.63;;
14768;SDS011;7476;49.404;11.152;2023-02-28T02:16:04;5.20;;;4.27;;
14768;SDS011;7476;49.404;11.152;2023-02-28T02:18:40;4.97;;;4.00;;
14768;SDS011;7476;49.404;11.152;2023-02-28T02:24:28;6.67;;;4.07;;
14768;SDS011;7476;49.404;11.152;2023-02-28T02:27:16;6.93;;;4.00;;
14768;SDS011;7476;49.404;11.152;2023-02-28T02:29:57;8.70;;;4.20;;
14768;SDS011;7476;49.404;11.152;2023-02-28T02:35:45;7.33;;;4.20;;
14768;SDS011;7476;49.404;11.152;2023-02-28T02:38:18;6.87;;;4.23;;
14768;SDS011;7476;49.404;11.152;2023-02-28T02:40:57;6.57;;;4.20;;
14768;SDS011;7476;49.404;11.152;2023-02-28T02:43:32;4.90;;;3.73;;
14768;SDS011;7476;49.404;11.152;2023-02-28T02:46:04;6.10;;;4.20;;
14768;SDS011;7476;49.404;11.152;2023-02-28T02:48:34;6.67;;;4.00;;
14768;SDS011;7476;49.404;11.152;2023-02-28T02:51:04;7.33;;;4.60;;
14768;SDS011;7476;49.404;11.152;2023-02-28T02:53:38;7.20;;;3.80;;
14768;SDS011;7476;49.404;11.152;2023-02-28T02:56:08;6.57;;;4.70;;
14768;SDS011;7476;49.404;11.152;2023-02-28T02:58:37;5.60;;;4.10;;
14768;SDS011;7476;49.404;11.152;2023-02-28T03:01:07;5.63;;;4.17;;
14768;SDS011;7476;49.404;11.152;2023-02-28T03:03:38;6.63;;;4.60;;
14768;SDS011;7476;49.404;11.152;2023-02-28T03:06:06;6.10;;;4.07;;
14768;SDS011;7476;49.404;11.152;2023-02-28T03:08:34;5.80;;;4.43;;
14768;SDS011;7476;49.404;11.152;2023-02-28T03:11:03;7.47;;;4.90;;
14768;SDS011;7476;49.404;11.152;2023-02-28T03:13:42;6.83;;;4.30;;
14768;SDS011;7476;49.404;11.152;2023-02-28T03:16:29;6.93;;;4.63;;
14768;SDS011;7476;49.404;11.152;2023-02-28T03:19:03;7.10;;;4.67;;
14768;SDS011;7476;49.404;11.152;2023-02-28T03:21:46;7.07;;;4.60;;
14768;SDS011;7476;49.404;11.152;2023-02-28T03:24:21;5.90;;;4.43;;
14768;SDS011;7476;49.404;11.152;2023-02-28T03:26:52;7.07;;;4.77;;
14768;SDS011;7476;49.404;11.152;2023-02-28T03:29:27;6.00;;;4.67;;
14768;SDS011;7476;49.404;11.152;2023-02-28T03:32:00;5.57;;;4.37;;
14768;SDS011;7476;49.404;11.152;2023-02-28T03:34:32;7.00;;;4.40;;
14768;SDS011;7476;49.404;11.152;2023-02-28T03:37:04;8.10;;;5.10;;
14768;SDS011;7476;49.404;11.152;2023-02-28T03:39:35;6.23;;;5.13;;
14768;SDS011;7476;49.404;11.152;2023-02-28T03:42:06;8.77;;;4.80;;
14768;SDS011;7476;49.404;11.152;2023-02-28T03:44:36;7.30;;;5.07;;
14768;SDS011;7476;49.404;11.152;2023-02-28T03:47:07;11.07;;;5.30;;
14768;SDS011;7476;49.404;11.152;2023-02-28T03:49:38;7.40;;;4.97;;
14768;SDS011;7476;49.404;11.152;2023-02-28T03:52:10;7.27;;;4.80;;
14768;SDS011;7476;49.404;11.152;2023-02-28T03:54:38;8.90;;;5.47;;
14768;SDS011;7476;49.404;11.152;2023-02-28T03:57:11;8.77;;;4.97;;
14768;SDS011;7476;49.404;11.152;2023-02-28T03:59:42;8.10;;;5.43;;
14768;SDS011;7476;49.404;11.152;2023-02-28T04:02:11;8.00;;;5.03;;
14768;SDS011;7476;49.404;11.152;2023-02-28T04:04:37;8.27;;;5.40;;
14768;SDS011;7476;49.404;11.152;2023-02-28T04:07:14;9.47;;;5.30;;
14768;SDS011;7476;49.404;11.152;2023-02-28T04:09:41;7.47;;;5.23;;
14768;SDS011;7476;49.404;11.152;2023-02-28T04:12:09;11.00;;;5.47;;
14768;SDS011;7476;49.404;11.152;2023-02-28T04:14:36;6.53;;;5.00;;
14768;SDS011;7476;49.404;11.152;2023-02-28T04:17:02;10.37;;;5.97;;
14768;SDS011;7476;49.404;11.152;2023-02-28T04:19:30;7.80;;;5.37;;
14768;SDS011;7476;49.404;11.152;2023-02-28T04:21:56;8.33;;;4.77;;
14768;SDS011;7476;49.404;11.152;2023-02-28T04:24:25;8.70;;;5.70;;
14768;SDS011;7476;49.404;11.152;2023-02-28T04:26:53;8.90;;;5.97;;
14768;SDS011;7476;49.404;11.152;2023-02-28T04:29:22;9.03;;;5.80;;
14768;SDS011;7476;49.404;11.152;2023-02-28T04:31:50;9.63;;;6.27;;
14768;SDS011;7476;49.404;11.152;2023-02-28T04:34:18;8.63;;;5.83;;
14768;SDS011;7476;49.404;11.152;2023-02-28T04:36:46;10.50;;;5.93;;
14768;SDS011;7476;49.404;11.152;2023-02-28T04:39:14;7.90;;;5.37;;
14768;SDS011;7476;49.404;11.152;2023-02-28T04:41:44;9.47;;;5.53;;
14768;SDS011;7476;49.404;11.152;2023-02-28T04:44:11;8.87;;;5.57;;
14768;SDS011;7476;49.404;11.152;2023-02-28T04:46:38;10.03;;;6.20;;
14768;SDS011;7476;49.404;11.152;2023-02-28T04:49:05;7.90;;;5.60;;
14768;SDS011;7476;49.404;11.152;2023-02-28T04:51:32;10.40;;;5.93;;
14768;SDS011;7476;49.404;11.152;2023-02-28T04:53:59;8.40;;;5.77;;
14768;SDS011;7476;49.404;11.152;2023-02-28T04:56:25;10.23;;;6.00;;
14768;SDS011;7476;49.404;11.152;2023-02-28T04:58:53;12.37;;;6.30;;
14768;SDS011;7476;49.404;11.152;2023-02-28T05:01:21;11.43;;;6.20;;
14768;SDS011;7476;49.404;11.152;2023-02-28T05:03:50;9.40;;;6.23;;
14768;SDS011;7476;49.404;11.152;2023-02-28T05:06:18;9.07;;;6.03;;
14768;SDS011;7476;49.404;11.152;2023-02-28T05:08:46;11.77;;;6.13;;
14768;SDS011;7476;49.404;11.152;2023-02-28T05:11:14;8.33;;;5.57;;
14768;SDS011;7476;49.404;11.152;2023-02-28T05:13:43;9.27;;;5.97;;
14768;SDS011;7476;49.404;11.152;2023-02-28T05:16:11;10.67;;;6.20;;
14768;SDS011;7476;49.404;11.152;2023-02-28T05:18:38;9.73;;;6.17;;
14768;SDS011;7476;49.404;11.152;2023-02-28T05:21:05;9.93;;;6.17;;
14768;SDS011;7476;49.404;11.152;2023-02-28T05:23:31;10.43;;;6.73;;
14768;SDS011;7476;49.404;11.152;2023-02-28T05:25:58;8.30;;;5.83;;
14768;SDS011;7476;49.404;11.152;2023-02-28T05:28:25;10.57;;;6.13;;
14768;SDS011;7476;49.404;11.152;2023-02-28T05:30:52;8.37;;;6.37;;
14768;SDS011;7476;49.404;11.152;2023-02-28T05:33:20;9.30;;;5.73;;
14768;SDS011;7476;49.404;11.152;2023-02-28T05:35:47;10.57;;;6.00;;
14768;SDS011;7476;49.404;11.152;2023-02-28T05:38:13;8.47;;;6.53;;
14768;SDS011;7476;49.404;11.152;2023-02-28T05:40:40;9.40;;;6.60;;
14768;SDS011;7476;49.404;11.152;2023-02-28T05:43:09;10.57;;;6.57;;
14768;SDS011;7476;49.404;11.152;2023-02-28T05:45:37;9.37;;;6.60;;
14768;SDS011;7476;49.404;11.152;2023-02-28T05:48:03;10.50;;;6.00;;
14768;SDS011;7476;49.404;11.152;2023-02-28T05:50:32;12.00;;;6.70;;
14768;SDS011;7476;49.404;11.152;2023-02-28T05:52:58;10.63;;;6.50;;
14768;SDS011;7476;49.404;11.152;2023-02-28T05:55:25;10.10;;;6.13;;
14768;SDS011;7476;49.404;11.152;2023-02-28T05:57:52;10.17;;;6.10;;
14768;SDS011;7476;49.404;11.152;2023-02-28T06:00:19;10.20;;;6.27;;
14768;SDS011;7476;49.404;11.152;2023-02-28T06:02:46;9.63;;;6.23;;
14768;SDS011;7476;49.404;11.152;2023-02-28T06:05:13;10.63;;;6.13;;
14768;SDS011;7476;49.404;11.152;2023-02-28T06:07:42;12.10;;;6.53;;
14768;SDS011;7476;49.404;11.152;2023-02-28T06:10:10;10.00;;;6.13;;
14768;SDS011;7476;49.404;11.152;2023-02-28T06:12:37;12.67;;;6.13;;
14768;SDS011;7476;49.404;11.152;2023-02-28T06:15:04;8.57;;;5.80;;
14768;SDS011;7476;49.404;11.152;2023-02-28T06:17:31;9.23;;;6.40;;
14768;SDS011;7476;49.404;11.152;2023-02-28T06:19:58;9.10;;;6.33;;
14768;SDS011;7476;49.404;11.152;2023-02-28T06:22:25;8.97;;;5.70;;
14768;SDS011;7476;49.404;11.152;2023-02-28T06:24:53;9.67;;;6.07;;
14768;SDS011;7476;49.404;11.152;2023-02-28T06:27:22;9.10;;;6.20;;
14768;SDS011;7476;49.404;11.152;2023-02-28T06:29:48;7.97;;;5.67;;
14768;SDS011;7476;49.404;11.152;2023-02-28T06:32:19;11.03;;;6.30;;
14768;SDS011;7476;49.404;11.152;2023-02-28T06:34:46;8.63;;;5.77;;
14768;SDS011;7476;49.404;11.152;2023-02-28T06:37:13;9.53;;;6.10;;
14768;SDS011;7476;49.404;11.152;2023-02-28T06:39:39;9.47;;;6.13;;
14768;SDS011;7476;49.404;11.152;2023-02-28T06:42:07;9.17;;;5.90;;
14768;SDS011;7476;49.404;11.152;2023-02-28T06:44:34;12.07;;;7.07;;
14768;SDS011;7476;49.404;11.152;2023-02-28T06:47:01;9.23;;;6.40;;
14768;SDS011;7476;49.404;11.152;2023-02-28T06:49:29;8.97;;;6.73;;
14768;SDS011;7476;49.404;11.152;2023-02-28T06:51:56;12.47;;;7.30;;
14768;SDS011;7476;49.404;11.152;2023-02-28T06:54:23;11.47;;;7.57;;
14768;SDS011;7476;49.404;11.152;2023-02-28T06:56:50;10.50;;;7.37;;
14768;SDS011;7476;49.404;11.152;2023-02-28T06:59:18;11.53;;;7.77;;
14768;SDS011;7476;49.404;11.152;2023-02-28T07:01:44;11.40;;;7.50;;
14768;SDS011;7476;49.404;11.152;2023-02-28T07:04:11;10.30;;;7.37;;
14768;SDS011;7476;49.404;11.152;2023-02-28T07:06:39;11.53;;;7.33;;
14768;SDS011;7476;49.404;11.152;2023-02-28T07:09:05;10.97;;;7.50;;
14768;SDS011;7476;49.404;11.152;2023-02-28T07:11:33;9.00;;;6.83;;
14768;SDS011;7476;49.404;11.152;2023-02-28T07:14:00;10.67;;;7.43;;
14768;SDS011;7476;49.404;11.152;2023-02-28T07:16:28;9.57;;;6.67;;
14768;SDS011;7476;49.404;11.152;2023-02-28T07:18:55;10.60;;;6.73;;
14768;SDS011;7476;49.404;11.152;2023-02-28T07:21:21;9.03;;;6.53;;
14768;SDS011;7476;49.404;11.152;2023-02-28T07:23:48;8.80;;;6.17;;
14768;SDS011;7476;49.404;11.152;2023-02-28T07:26:16;7.70;;;6.73;;
14768;SDS011;7476;49.404;11.152;2023-02-28T07:28:44;10.70;;;6.60;;
14768;SDS011;7476;49.404;11.152;2023-02-28T07:31:12;9.57;;;6.90;;
14768;SDS011;7476;49.404;11.152;2023-02-28T07:33:41;9.60;;;6.57;;
14768;SDS011;7476;49.404;11.152;2023-02-28T07:36:09;7.80;;;5.93;;
14768;SDS011;7476;49.404;11.152;2023-02-28T07:38:40;9.03;;;6.73;;
14768;SDS011;7476;49.404;11.152;2023-02-28T07:41:07;8.80;;;6.13;;
14768;SDS011;7476;49.404;11.152;2023-02-28T07:43:34;10.97;;;6.67;;
14768;SDS011;7476;49.404;11.152;2023-02-28T07:46:02;9.67;;;6.80;;
14768;SDS011;7476;49.404;11.152;2023-02-28T07:48:29;11.93;;;6.80;;
14768;SDS011;7476;49.404;11.152;2023-02-28T07:50:58;10.23;;;6.60;;
14768;SDS011;7476;49.404;11.152;2023-02-28T07:53:25;8.73;;;6.20;;
14768;SDS011;7476;49.404;11.152;2023-02-28T07:55:54;10.03;;;6.80;;
14768;SDS011;7476;49.404;11.152;2023-02-28T07:58:21;11.67;;;7.00;;
14768;SDS011;7476;49.404;11.152;2023-02-28T08:00:48;8.70;;;6.60;;
14768;SDS011;7476;49.404;11.152;2023-02-28T08:03:15;10.90;;;7.10;;
14768;SDS011;7476;49.404;11.152;2023-02-28T08:05:42;9.07;;;6.77;;
14768;SDS011;7476;49.404;11.152;2023-02-28T08:08:10;8.93;;;6.93;;
14768;SDS011;7476;49.404;11.152;2023-02-28T08:10:37;10.83;;;6.83;;
14768;SDS011;7476;49.404;11.152;2023-02-28T08:13:03;9.40;;;6.53;;
14768;SDS011;7476;49.404;11.152;2023-02-28T08:15:30;10.20;;;7.33;;
14768;SDS011;7476;49.404;11.152;2023-02-28T08:17:57;8.67;;;7.00;;
14768;SDS011;7476;49.404;11.152;2023-02-28T08:20:24;9.60;;;7.00;;
14768;SDS011;7476;49.404;11.152;2023-02-28T08:22:51;10.63;;;7.47;;
14768;SDS011;7476;49.404;11.152;2023-02-28T08:25:20;10.27;;;7.43;;
14768;SDS011;7476;49.404;11.152;2023-02-28T08:27:46;10.27;;;6.73;;
14768;SDS011;7476;49.404;11.152;2023-02-28T08:30:14;10.10;;;7.00;;
14768;SDS011;7476;49.404;11.152;2023-02-28T08:32:41;9.43;;;7.00;;
14768;SDS011;7476;49.404;11.152;2023-02-28T08:35:08;8.83;;;6.90;;
14768;SDS011;7476;49.404;11.152;2023-02-28T08:37:35;9.33;;;6.83;;
14768;SDS011;7476;49.404;11.152;2023-02-28T08:40:02;9.43;;;6.83;;
14768;SDS011;7476;49.404;11.152;2023-02-28T08:42:31;12.27;;;7.70;;
14768;SDS011;7476;49.404;11.152;2023-02-28T08:44:58;11.53;;;7.50;;
14768;SDS011;7476;49.404;11.152;2023-02-28T08:47:25;8.70;;;6.83;;
14768;SDS011;7476;49.404;11.152;2023-02-28T08:49:51;9.30;;;7.37;;
14768;SDS011;7476;49.404;11.152;2023-02-28T08:52:18;9.00;;;7.00;;
14768;SDS011;7476;49.404;11.152;2023-02-28T08:54:45;9.43;;;7.03;;
14768;SDS011;7476;49.404;11.152;2023-02-28T08:57:11;9.83;;;7.97;;
14768;SDS011;7476;49.404;11.152;2023-02-28T08:59:39;10.73;;;7.47;;
14768;SDS011;7476;49.404;11.152;2023-02-28T09:02:08;10.87;;;6.97;;
14768;SDS011;7476;49.404;11.152;2023-02-28T09:04:35;8.97;;;6.67;;
14768;SDS011;7476;49.404;11.152;2023-02-28T09:07:02;9.07;;;7.53;;
14768;SDS011;7476;49.404;11.152;2023-02-28T09:09:28;10.97;;;6.73;;
14768;SDS011;7476;49.404;11.152;2023-02-28T09:11:55;11.07;;;7.37;;
14768;SDS011;7476;49.404;11.152;2023-02-28T09:14:22;10.47;;;7.30;;
14768;SDS011;7476;49.404;11.152;2023-02-28T09:16:50;10.20;;;7.17;;
14768;SDS011;7476;49.404;11.152;2023-02-28T09:19:16;9.17;;;7.00;;
14768;SDS011;7476;49.404;11.152;2023-02-28T09:21:43;8.23;;;6.67;;
14768;SDS011;7476;49.404;11.152;2023-02-28T09:24:10;10.37;;;7.40;;
14768;SDS011;7476;49.404;11.152;2023-02-28T09:26:39;10.20;;;7.40;;
14768;SDS011;7476;49.404;11.152;2023-02-28T09:29:06;11.13;;;7.57;;
14768;SDS011;7476;49.404;11.152;2023-02-28T09:31:33;9.37;;;7.13;;
14768;SDS011;7476;49.404;11.152;2023-02-28T09:34:01;10.37;;;7.03;;
14768;SDS011;7476;49.404;11.152;2023-02-28T09:36:27;11.47;;;7.27;;
14768;SDS011;7476;49.404;11.152;2023-02-28T09:38:54;11.73;;;6.90;;
14768;SDS011;7476;49.404;11.152;2023-02-28T09:41:22;8.87;;;6.93;;
14768;SDS011;7476;49.404;11.152;2023-02-28T09:43:53;9.97;;;7.40;;
14768;SDS011;7476;49.404;11.152;2023-02-28T09:46:27;10.93;;;6.57;;
14768;SDS011;7476;49.404;11.152;2023-02-28T09:48:58;12.30;;;7.23;;
14768;SDS011;7476;49.404;11.152;2023-02-28T09:51:37;9.57;;;7.10;;
14768;SDS011;7476;49.404;11.152;2023-02-28T09:54:12;8.40;;;6.47;;
14768;SDS011;7476;49.404;11.152;2023-02-28T09:56:44;8.87;;;6.43;;
14768;SDS011;7476;49.404;11.152;2023-02-28T09:59:18;9.90;;;7.00;;
14768;SDS011;7476;49.404;11.152;2023-02-28T10:02:09;9.17;;;7.03;;
14768;SDS011;7476;49.404;11.152;2023-02-28T10:04:49;10.03;;;7.07;;
14768;SDS011;7476;49.404;11.152;2023-02-28T10:07:23;8.07;;;6.83;;
14768;SDS011;7476;49.404;11.152;2023-02-28T10:10:04;9.43;;;7.00;;
14768;SDS011;7476;49.404;11.152;2023-02-28T10:12:41;9.47;;;7.37;;
14768;SDS011;7476;49.404;11.152;2023-02-28T10:15:13;9.13;;;7.00;;
14768;SDS011;7476;49.404;11.152;2023-02-28T10:17:42;10.87;;;6.50;;
14768;SDS011;7476;49.404;11.152;2023-02-28T10:20:15;10.27;;;7.23;;
14768;SDS011;7476;49.404;11.152;2023-02-28T10:22:50;9.90;;;7.30;;
14768;SDS011;7476;49.404;11.152;2023-02-28T10:25:20;8.57;;;6.53;;
14768;SDS011;7476;49.404;11.152;2023-02-28T10:27:49;9.33;;;6.67;;
14768;SDS011;7476;49.404;11.152;2023-02-28T10:30:16;8.17;;;6.60;;
14768;SDS011;7476;49.404;11.152;2023-02-28T10:32:45;8.13;;;6.63;;
14768;SDS011;7476;49.404;11.152;2023-02-28T10:35:17;9.43;;;6.93;;
14768;SDS011;7476;49.404;11.152;2023-02-28T10:37:46;11.40;;;7.43;;
14768;SDS011;7476;49.404;11.152;2023-02-28T10:40:25;11.43;;;6.80;;
14768;SDS011;7476;49.404;11.152;2023-02-28T10:42:54;9.37;;;7.13;;
14768;SDS011;7476;49.404;11.152;2023-02-28T10:45:22;9.73;;;6.40;;
14768;SDS011;7476;49.404;11.152;2023-02-28T10:47:51;10.43;;;6.97;;
14768;SDS011;7476;49.404;11.152;2023-02-28T10:50:28;8.93;;;6.73;;
14768;SDS011;7476;49.404;11.152;2023-02-28T10:53:05;9.73;;;6.50;;
14768;SDS011;7476;49.404;11.152;2023-02-28T10:55:40;7.37;;;5.80;;
14768;SDS011;7476;49.404;11.152;2023-02-28T10:58:15;8.97;;;6.30;;
14768;SDS011;7476;49.404;11.152;2023-02-28T11:00:47;9.23;;;6.60;;
14768;SDS011;7476;49.404;11.152;2023-02-28T11:03:22;9.23;;;6.70;;
14768;SDS011;7476;49.404;11.152;2023-02-28T11:05:52;9.10;;;6.73;;
14768;SDS011;7476;49.404;11.152;2023-02-28T11:08:19;7.53;;;6.50;;
14768;SDS011;7476;49.404;11.152;2023-02-28T11:10:46;7.80;;;6.67;;
14768;SDS011;7476;49.404;11.152;2023-02-28T11:13:16;7.60;;;6.23;;
14768;SDS011;7476;49.404;11.152;2023-02-28T11:15:49;7.73;;;6.60;;
14768;SDS011;7476;49.404;11.152;2023-02-28T11:18:20;9.10;;;6.77;;
14768;SDS011;7476;49.404;11.152;2023-02-28T11:20:50;7.90;;;6.70;;
14768;SDS011;7476;49.404;11.152;2023-02-28T11:23:21;10.90;;;6.90;;
14768;SDS011;7476;49.404;11.152;2023-02-28T11:25:54;8.33;;;6.50;;
14768;SDS011;7476;49.404;11.152;2023-02-28T11:28:25;8.20;;;6.50;;
14768;SDS011;7476;49.404;11.152;2023-02-28T11:31:00;9.00;;;7.00;;
14768;SDS011;7476;49.404;11.152;2023-02-28T11:33:29;7.47;;;6.60;;
14768;SDS011;7476;49.404;11.152;2023-02-28T11:35:59;10.07;;;6.87;;
14768;SDS011;7476;49.404;11.152;2023-02-28T11:38:29;8.77;;;6.70;;
14768;SDS011;7476;49.404;11.152;2023-02-28T11:41:05;7.87;;;6.83;;
14768;SDS011;7476;49.404;11.152;2023-02-28T11:43:50;8.63;;;6.57;;
14768;SDS011;7476;49.404;11.152;2023-02-28T11:46:41;8.30;;;6.87;;
14768;SDS011;7476;49.404;11.152;2023-02-28T11:49:17;10.50;;;7.50;;
14768;SDS011;7476;49.404;11.152;2023-02-28T11:51:58;8.73;;;7.00;;
14768;SDS011;7476;49.404;11.152;2023-02-28T11:54:38;10.63;;;7.60;;
14768;SDS011;7476;49.404;11.152;2023-02-28T11:57:40;7.37;;;6.50;;
14768;SDS011;7476;49.404;11.152;2023-02-28T12:00:29;7.87;;;6.37;;
14768;SDS011;7476;49.404;11.152;2023-02-28T12:03:08;8.87;;;6.67;;
14768;SDS011;7476;49.404;11.152;2023-02-28T12:05:49;8.33;;;7.03;;
14768;SDS011;7476;49.404;11.152;2023-02-28T12:08:27;11.87;;;7.80;;
14768;SDS011;7476;49.404;11.152;2023-02-28T12:11:11;9.00;;;7.07;;
14768;SDS011;7476;49.404;11.152;2023-02-28T12:13:46;9.10;;;6.93;;
14768;SDS011;7476;49.404;11.152;2023-02-28T12:16:27;7.57;;;6.27;;
14768;SDS011;7476;49.404;11.152;2023-02-28T12:19:05;9.40;;;7.10;;
14768;SDS011;7476;49.404;11.152;2023-02-28T12:21:44;8.13;;;6.70;;
14768;SDS011;7476;49.404;11.152;2023-02-28T12:24:28;9.00;;;6.60;;
14768;SDS011;7476;49.404;11.152;2023-02-28T12:27:09;7.47;;;6.40;;
14768;SDS011;7476;49.404;11.152;2023-02-28T12:29:40;9.53;;;6.50;;
14768;SDS011;7476;49.404;11.152;2023-02-28T12:32:13;8.20;;;6.43;;
14768;SDS011;7476;49.404;11.152;2023-02-28T12:34:47;8.57;;;6.40;;
14768;SDS011;7476;49.404;11.152;2023-02-28T12:37:17;8.77;;;7.23;;
14768;SDS011;7476;49.404;11.152;2023-02-28T12:39:50;8.90;;;6.70;;
14768;SDS011;7476;49.404;11.152;2023-02-28T12:42:24;9.17;;;6.77;;
14768;SDS011;7476;49.404;11.152;2023-02-28T12:44:54;8.93;;;6.63;;
14768;SDS011;7476;49.404;11.152;2023-02-28T12:47:24;7.37;;;6.30;;
14768;SDS011;7476;49.404;11.152;2023-02-28T12:49:52;7.93;;;6.13;;
14768;SDS011;7476;49.404;11.152;2023-02-28T12:52:23;8.53;;;6.07;;
14768;SDS011;7476;49.404;11.152;2023-02-28T12:55:03;8.33;;;6.23;;
14768;SDS011;7476;49.404;11.152;2023-02-28T12:57:34;10.33;;;7.17;;
14768;SDS011;7476;49.404;11.152;2023-02-28T13:00:09;8.50;;;6.50;;
14768;SDS011;7476;49.404;11.152;2023-02-28T13:02:43;8.13;;;6.57;;
14768;SDS011;7476;49.404;11.152;2023-02-28T13:05:26;8.53;;;6.97;;
14768;SDS011;7476;49.404;11.152;2023-02-28T13:08:19;8.20;;;6.17;;
14768;SDS011;7476;49.404;11.152;2023-02-28T13:11:06;9.57;;;6.97;;
14768;SDS011;7476;49.404;11.152;2023-02-28T13:13:48;8.43;;;7.03;;
14768;SDS011;7476;49.404;11.152;2023-02-28T13:16:24;7.97;;;6.43;;
14768;SDS011;7476;49.404;11.152;2023-02-28T13:18:51;9.23;;;6.57;;
14768;SDS011;7476;49.404;11.152;2023-02-28T13:21:24;9.43;;;6.90;;
14768;SDS011;7476;49.404;11.152;2023-02-28T13:23:57;6.97;;;6.27;;
14768;SDS011;7476;49.404;11.152;2023-02-28T13:29:29;7.63;;;6.50;;
14768;SDS011;7476;49.404;11.152;2023-02-28T13:44:07;7.33;;;6.57;;
14768;SDS011;7476;49.404;11.152;2023-02-28T13:46:38;9.23;;;7.00;;
14768;SDS011;7476;49.404;11.152;2023-02-28T13:49:41;8.97;;;6.60;;
14768;SDS011;7476;49.404;11.152;2023-02-28T13:52:10;9.97;;;7.77;;
14768;SDS011;7476;49.404;11.152;2023-02-28T13:54:45;8.47;;;6.73;;
14768;SDS011;7476;49.404;11.152;2023-02-28T13:57:40;9.13;;;7.10;;
14768;SDS011;7476;49.404;11.152;2023-02-28T14:00:17;9.23;;;7.20;;
14768;SDS011;7476;49.404;11.152;2023-02-28T14:03:01;8.80;;;6.70;;
14768;SDS011;7476;49.404;11.152;2023-02-28T14:05:37;8.90;;;7.10;;
14768;SDS011;7476;49.404;11.152;2023-02-28T14:08:05;9.70;;;7.40;;
14768;SDS011;7476;49.404;11.152;2023-02-28T14:10:39;8.03;;;7.03;;
14768;SDS011;7476;49.404;11.152;2023-02-28T14:13:14;8.53;;;6.50;;
14768;SDS011;7476;49.404;11.152;2023-02-28T14:16:09;8.37;;;6.53;;
14768;SDS011;7476;49.404;11.152;2023-02-28T14:18:39;11.73;;;7.13;;
14768;SDS011;7476;49.404;11.152;2023-02-28T14:21:09;10.77;;;7.53;;
14768;SDS011;7476;49.404;11.152;2023-02-28T14:23:47;8.70;;;7.13;;
14768;SDS011;7476;49.404;11.152;2023-02-28T14:26:29;8.53;;;7.27;;
14768;SDS011;7476;49.404;11.152;2023-02-28T14:29:14;8.37;;;7.30;;
14768;SDS011;7476;49.404;11.152;2023-02-28T14:32:03;8.10;;;7.27;;
14768;SDS011;7476;49.404;11.152;2023-02-28T14:34:42;10.47;;;7.90;;
14768;SDS011;7476;49.404;11.152;2023-02-28T14:37:16;11.03;;;7.60;;
14768;SDS011;7476;49.404;11.152;2023-02-28T14:39:46;8.63;;;7.40;;
14768;SDS011;7476;49.404;11.152;2023-02-28T14:42:30;9.67;;;7.53;;
14768;SDS011;7476;49.404;11.152;2023-02-28T14:44:58;8.90;;;7.60;;
14768;SDS011;7476;49.404;11.152;2023-02-28T14:47:26;8.40;;;7.10;;
14768;SDS011;7476;49.404;11.152;2023-02-28T14:49:55;11.47;;;8.00;;
14768;SDS011;7476;49.404;11.152;2023-02-28T14:52:24;9.47;;;7.53;;
14768;SDS011;7476;49.404;11.152;2023-02-28T14:54:54;8.73;;;7.43;;
14768;SDS011;7476;49.404;11.152;2023-02-28T14:57:23;8.33;;;7.00;;
14768;SDS011;7476;49.404;11.152;2023-02-28T14:59:58;8.53;;;7.10;;
14768;SDS011;7476;49.404;11.152;2023-02-28T15:02:29;9.37;;;6.90;;
14768;SDS011;7476;49.404;11.152;2023-02-28T15:04:59;8.63;;;7.17;;
14768;SDS011;7476;49.404;11.152;2023-02-28T15:07:27;8.83;;;7.10;;
14768;SDS011;7476;49.404;11.152;2023-02-28T15:10:10;9.30;;;7.00;;
14768;SDS011;7476;49.404;11.152;2023-02-28T15:12:44;9.50;;;7.03;;
14768;SDS011;7476;49.404;11.152;2023-02-28T15:15:17;9.57;;;7.30;;
14768;SDS011;7476;49.404;11.152;2023-02-28T15:17:46;9.03;;;6.73;;
14768;SDS011;7476;49.404;11.152;2023-02-28T15:20:18;8.03;;;6.70;;
14768;SDS011;7476;49.404;11.152;2023-02-28T15:22:45;8.20;;;6.47;;
14768;SDS011;7476;49.404;11.152;2023-02-28T15:25:14;9.57;;;7.27;;
14768;SDS011;7476;49.404;11.152;2023-02-28T15:27:45;10.67;;;6.93;;